createdAt,value
2017-12-20T00:02:09.188Z,6.80
2017-12-20T00:04:36.635Z,6.80
2017-12-20T00:07:04.093Z,6.80
2017-12-20T00:09:31.546Z,6.80
2017-12-20T00:11:59.011Z,6.80
2017-12-20T00:14:26.467Z,6.80
2017-12-20T00:16:53.926Z,6.90
2017-12-20T00:19:21.378Z,6.90
2017-12-20T00:21:48.835Z,6.80
2017-12-20T00:24:16.292Z,6.80
2017-12-20T00:26:43.819Z,6.80
2017-12-20T00:29:11.362Z,6.90
2017-12-20T00:31:38.825Z,6.90
2017-12-20T00:34:06.334Z,6.90
2017-12-20T00:36:33.809Z,6.80
2017-12-20T00:39:02.039Z,6.80
2017-12-20T00:41:29.510Z,6.80
2017-12-20T00:43:57.023Z,6.80
2017-12-20T00:46:24.476Z,6.80
2017-12-20T00:48:51.939Z,6.80
2017-12-20T00:51:19.386Z,6.80
2017-12-20T00:53:46.855Z,6.90
2017-12-20T00:56:14.311Z,6.90
2017-12-20T00:58:41.762Z,6.90
2017-12-20T01:01:09.231Z,6.90
2017-12-20T01:03:36.687Z,6.90
2017-12-20T01:06:04.135Z,6.90
2017-12-20T01:08:31.609Z,6.90
2017-12-20T01:10:59.059Z,6.90
2017-12-20T01:13:26.518Z,7.00
2017-12-20T01:15:53.970Z,7.00
2017-12-20T01:18:21.419Z,7.00
2017-12-20T01:20:48.889Z,7.00
2017-12-20T01:23:16.340Z,7.00
2017-12-20T01:25:43.811Z,7.00
2017-12-20T01:28:11.267Z,7.00
2017-12-20T01:30:38.729Z,7.00
2017-12-20T01:33:06.187Z,7.10
2017-12-20T01:35:33.642Z,7.10
2017-12-20T01:38:01.104Z,7.10
2017-12-20T01:40:28.562Z,7.10
2017-12-20T01:42:56.028Z,7.10
2017-12-20T01:45:23.478Z,7.10
2017-12-20T01:47:50.948Z,7.10
2017-12-20T01:50:18.406Z,7.10
2017-12-20T01:52:45.863Z,7.10
2017-12-20T01:55:13.318Z,7.10
2017-12-20T01:57:40.767Z,7.20
2017-12-20T02:00:08.219Z,7.20
2017-12-20T02:02:35.686Z,7.20
2017-12-20T02:05:03.143Z,7.20
2017-12-20T02:07:30.602Z,7.20
2017-12-20T02:09:58.104Z,7.20
2017-12-20T02:12:25.515Z,7.20
2017-12-20T02:14:52.972Z,7.20
2017-12-20T02:17:20.438Z,7.20
2017-12-20T02:19:47.882Z,7.20
2017-12-20T02:22:15.343Z,7.20
2017-12-20T02:24:42.807Z,7.20
2017-12-20T02:27:11.039Z,7.20
2017-12-20T02:29:38.502Z,7.20
2017-12-20T02:32:05.958Z,7.20
2017-12-20T02:34:33.424Z,7.20
2017-12-20T02:37:00.880Z,7.20
2017-12-20T02:39:28.344Z,7.20
2017-12-20T02:41:55.817Z,7.20
2017-12-20T02:44:23.267Z,7.20
2017-12-20T02:46:50.715Z,7.20
2017-12-20T02:49:18.183Z,7.20
2017-12-20T02:51:45.639Z,7.20
2017-12-20T02:54:13.090Z,7.20
2017-12-20T02:56:40.554Z,7.20
2017-12-20T02:59:08.010Z,7.20
2017-12-20T03:01:37.155Z,7.30
2017-12-20T03:04:04.629Z,7.30
2017-12-20T03:06:32.078Z,7.30
2017-12-20T03:08:59.539Z,7.30
2017-12-20T03:11:27.015Z,7.30
2017-12-20T03:13:54.462Z,7.30
2017-12-20T03:16:21.942Z,7.30
2017-12-20T03:18:49.401Z,7.30
2017-12-20T03:21:16.854Z,7.30
2017-12-20T03:23:44.312Z,7.30
2017-12-20T03:26:11.774Z,7.40
2017-12-20T03:28:39.994Z,7.40
2017-12-20T03:31:07.456Z,7.40
2017-12-20T03:33:34.932Z,7.40
2017-12-20T03:36:02.391Z,7.40
2017-12-20T03:38:29.862Z,7.50
2017-12-20T03:40:57.331Z,7.40
2017-12-20T03:43:24.802Z,7.40
2017-12-20T03:45:53.051Z,7.50
2017-12-20T03:48:20.504Z,7.50
2017-12-20T03:50:47.962Z,7.50
2017-12-20T03:53:15.428Z,7.50
2017-12-20T03:55:42.882Z,7.50
2017-12-20T03:58:10.355Z,7.50
2017-12-20T04:00:38.581Z,7.50
2017-12-20T04:03:06.053Z,7.40
2017-12-20T04:05:33.503Z,7.50
2017-12-20T04:08:00.968Z,7.50
2017-12-20T04:10:28.434Z,7.50
2017-12-20T04:12:55.903Z,7.50
2017-12-20T04:15:23.359Z,7.50
2017-12-20T04:17:50.831Z,7.50
2017-12-20T04:20:19.048Z,7.50
2017-12-20T04:22:46.519Z,7.60
2017-12-20T04:25:13.978Z,7.60
2017-12-20T04:27:41.435Z,7.50
2017-12-20T04:30:08.908Z,7.50
2017-12-20T04:32:36.358Z,7.50
2017-12-20T04:35:03.818Z,7.50
2017-12-20T04:37:31.288Z,7.50
2017-12-20T04:39:58.742Z,7.50
2017-12-20T04:42:26.211Z,7.50
2017-12-20T04:44:54.451Z,7.50
2017-12-20T04:47:21.902Z,7.60
2017-12-20T04:49:49.368Z,7.50
2017-12-20T04:52:16.824Z,7.50
2017-12-20T04:54:44.270Z,7.50
2017-12-20T04:57:11.739Z,7.50
2017-12-20T04:59:39.195Z,7.50
2017-12-20T05:02:06.658Z,7.50
2017-12-20T05:04:34.122Z,7.40
2017-12-20T05:07:01.583Z,7.40
2017-12-20T05:09:29.063Z,7.50
2017-12-20T05:11:57.298Z,7.40
2017-12-20T05:14:24.759Z,7.40
2017-12-20T05:16:52.214Z,7.40
2017-12-20T05:19:19.682Z,7.40
2017-12-20T05:21:47.135Z,7.40
2017-12-20T05:24:14.594Z,7.40
2017-12-20T05:26:42.051Z,7.40
2017-12-20T05:29:09.502Z,7.40
2017-12-20T05:31:37.015Z,7.40
2017-12-20T05:34:04.470Z,7.40
2017-12-20T05:36:31.928Z,7.40
2017-12-20T05:38:59.392Z,7.40
2017-12-20T05:41:26.852Z,7.40
2017-12-20T05:43:54.324Z,7.50
2017-12-20T05:46:21.812Z,7.40
2017-12-20T05:48:49.275Z,7.40
2017-12-20T05:51:16.718Z,7.40
2017-12-20T05:53:44.186Z,7.40
2017-12-20T05:56:12.420Z,7.40
2017-12-20T05:58:39.876Z,7.40
2017-12-20T06:01:07.351Z,7.40
2017-12-20T06:03:34.873Z,7.50
2017-12-20T06:06:02.326Z,7.50
2017-12-20T06:08:29.797Z,7.40
2017-12-20T06:10:58.026Z,7.50
2017-12-20T06:13:26.244Z,7.50
2017-12-20T06:15:53.723Z,7.40
2017-12-20T06:18:21.171Z,7.50
2017-12-20T06:20:48.622Z,7.40
2017-12-20T06:23:16.108Z,7.40
2017-12-20T06:25:43.563Z,7.40
2017-12-20T06:28:11.015Z,7.40
2017-12-20T06:30:38.491Z,7.40
2017-12-20T06:33:05.945Z,7.40
2017-12-20T06:35:33.398Z,7.40
2017-12-20T06:38:00.871Z,7.40
2017-12-20T06:40:29.096Z,7.40
2017-12-20T06:42:56.564Z,7.40
2017-12-20T06:45:24.035Z,7.50
2017-12-20T06:47:51.487Z,7.40
2017-12-20T06:50:18.946Z,7.40
2017-12-20T06:52:46.644Z,7.40
2017-12-20T06:55:14.103Z,7.40
2017-12-20T06:57:41.553Z,7.40
2017-12-20T07:00:09.784Z,7.50
2017-12-20T07:02:37.233Z,7.50
2017-12-20T07:05:04.703Z,7.50
2017-12-20T07:07:32.164Z,7.50
2017-12-20T07:09:59.618Z,7.50
2017-12-20T07:12:27.095Z,7.50
2017-12-20T07:14:54.596Z,7.50
2017-12-20T07:17:22.033Z,7.50
2017-12-20T07:19:49.506Z,7.50
2017-12-20T07:22:17.064Z,7.50
2017-12-20T07:24:44.515Z,7.60
2017-12-20T07:27:11.986Z,7.60
2017-12-20T07:29:39.447Z,7.60
2017-12-20T07:32:06.918Z,7.60
2017-12-20T07:34:34.374Z,7.60
2017-12-20T07:37:01.832Z,7.60
2017-12-20T07:39:29.298Z,7.50
2017-12-20T07:41:56.780Z,7.50
2017-12-20T07:44:24.235Z,7.60
2017-12-20T07:46:51.699Z,7.60
2017-12-20T07:49:19.928Z,7.60
2017-12-20T07:51:47.391Z,7.60
2017-12-20T07:54:14.855Z,7.60
2017-12-20T07:56:42.315Z,7.60
2017-12-20T07:59:09.779Z,7.60
2017-12-20T08:01:37.235Z,7.60
2017-12-20T08:04:04.689Z,7.70
2017-12-20T08:06:32.154Z,7.60
2017-12-20T08:08:59.615Z,7.60
2017-12-20T08:11:27.072Z,7.70
2017-12-20T08:13:54.538Z,7.70
2017-12-20T08:16:22.766Z,7.70
2017-12-20T08:18:50.235Z,7.70
2017-12-20T08:21:17.709Z,7.70
2017-12-20T08:23:45.170Z,7.80
2017-12-20T08:26:12.631Z,7.80
2017-12-20T08:28:40.079Z,7.80
2017-12-20T08:31:07.542Z,7.80
2017-12-20T08:33:34.999Z,7.80
2017-12-20T08:36:03.228Z,7.80
2017-12-20T08:38:30.707Z,7.80
2017-12-20T08:40:58.158Z,7.90
2017-12-20T08:43:25.617Z,7.90
2017-12-20T08:45:53.106Z,7.90
2017-12-20T08:48:20.583Z,7.90
2017-12-20T08:50:48.808Z,7.90
2017-12-20T08:53:16.283Z,7.90
2017-12-20T08:55:43.731Z,7.90
2017-12-20T08:58:11.192Z,8.00
2017-12-20T09:00:38.666Z,8.00
2017-12-20T09:03:06.878Z,8.00
2017-12-20T09:05:34.338Z,8.00
2017-12-20T09:08:01.820Z,8.00
2017-12-20T09:10:29.282Z,8.00
2017-12-20T09:12:56.737Z,8.00
2017-12-20T09:15:24.216Z,8.00
2017-12-20T09:17:51.676Z,8.10
2017-12-20T09:20:19.127Z,8.10
2017-12-20T09:22:46.607Z,8.10
2017-12-20T09:25:14.835Z,8.10
2017-12-20T09:27:42.295Z,8.10
2017-12-20T09:30:09.762Z,8.10
2017-12-20T09:32:37.255Z,8.20
2017-12-20T09:35:04.692Z,8.20
2017-12-20T09:37:32.156Z,8.20
2017-12-20T09:40:00.380Z,8.30
2017-12-20T09:42:27.851Z,8.30
2017-12-20T09:44:55.333Z,8.30
2017-12-20T09:47:22.792Z,8.40
2017-12-20T09:49:50.251Z,8.40
2017-12-20T09:52:18.475Z,8.50
2017-12-20T09:54:45.951Z,8.50
2017-12-20T09:57:13.407Z,8.60
2017-12-20T09:59:40.858Z,8.60
2017-12-20T10:02:08.339Z,8.60
2017-12-20T10:04:35.812Z,8.70
2017-12-20T10:07:04.032Z,8.80
2017-12-20T10:09:31.584Z,8.80
2017-12-20T10:11:59.047Z,8.80
2017-12-20T10:14:26.507Z,8.80
2017-12-20T10:16:53.986Z,8.80
2017-12-20T10:19:21.438Z,8.90
2017-12-20T10:21:48.907Z,8.90
2017-12-20T10:24:16.359Z,8.90
2017-12-20T10:26:43.815Z,8.90
2017-12-20T10:29:11.287Z,8.90
2017-12-20T10:31:38.797Z,8.90
2017-12-20T10:34:06.256Z,8.90
2017-12-20T10:36:33.728Z,8.90
2017-12-20T10:39:01.188Z,8.90
2017-12-20T10:41:28.650Z,9.00
2017-12-20T10:43:56.122Z,9.00
2017-12-20T10:46:23.583Z,9.00
2017-12-20T10:48:51.042Z,8.90
2017-12-20T10:51:18.508Z,9.00
2017-12-20T10:53:45.966Z,9.00
2017-12-20T10:56:14.201Z,9.10
2017-12-20T10:58:41.654Z,9.10
2017-12-20T11:01:09.134Z,9.00
2017-12-20T11:03:36.595Z,9.00
2017-12-20T11:06:04.046Z,9.10
2017-12-20T11:08:31.520Z,9.00
2017-12-20T11:10:58.974Z,9.10
2017-12-20T11:13:26.434Z,9.10
2017-12-20T11:15:53.914Z,9.10
2017-12-20T11:18:21.374Z,9.00
2017-12-20T11:20:48.835Z,9.00
2017-12-20T11:23:16.307Z,9.00
2017-12-20T11:25:43.762Z,9.10
2017-12-20T11:28:11.226Z,9.00
2017-12-20T11:30:38.696Z,9.10
2017-12-20T11:33:06.150Z,9.10
2017-12-20T11:35:33.617Z,9.00
2017-12-20T11:38:01.076Z,9.10
2017-12-20T11:40:28.547Z,9.10
2017-12-20T11:42:56.012Z,9.10
2017-12-20T11:45:23.462Z,9.20
2017-12-20T11:47:50.948Z,9.10
2017-12-20T11:50:19.183Z,9.20
2017-12-20T11:52:46.647Z,9.20
2017-12-20T11:55:14.105Z,9.20
2017-12-20T11:57:41.571Z,9.20
2017-12-20T12:00:09.040Z,9.30
2017-12-20T12:02:37.262Z,9.30
2017-12-20T12:05:04.709Z,9.30
2017-12-20T12:07:32.192Z,9.30
2017-12-20T12:09:59.638Z,9.30
2017-12-20T12:12:27.096Z,9.30
2017-12-20T12:14:54.554Z,9.40
2017-12-20T12:17:22.010Z,9.40
2017-12-20T12:19:49.478Z,9.40
2017-12-20T12:22:16.946Z,9.40
2017-12-20T12:24:44.411Z,9.40
2017-12-20T12:27:11.884Z,9.40
2017-12-20T12:29:40.113Z,9.40
2017-12-20T12:32:07.576Z,9.30
2017-12-20T12:34:35.037Z,9.30
2017-12-20T12:37:02.504Z,9.40
2017-12-20T12:39:29.954Z,9.30
2017-12-20T12:41:57.416Z,9.30
2017-12-20T12:44:24.887Z,9.40
2017-12-20T12:46:53.110Z,9.40
2017-12-20T12:49:20.579Z,9.40
2017-12-20T12:51:48.044Z,9.40
2017-12-20T12:54:15.518Z,9.40
2017-12-20T12:56:42.969Z,9.40
2017-12-20T12:59:10.439Z,9.40
2017-12-20T13:01:37.894Z,9.40
2017-12-20T13:04:05.343Z,9.40
2017-12-20T13:06:32.819Z,9.40
2017-12-20T13:09:01.031Z,9.30
2017-12-20T13:11:28.496Z,9.30
2017-12-20T13:13:55.972Z,9.30
2017-12-20T13:16:23.433Z,9.40
2017-12-20T13:18:50.883Z,9.40
2017-12-20T13:21:18.363Z,9.40
2017-12-20T13:23:45.819Z,9.50
2017-12-20T13:26:13.271Z,9.50
2017-12-20T13:28:40.740Z,9.50
2017-12-20T13:31:08.196Z,9.60
2017-12-20T13:33:35.646Z,9.60
2017-12-20T13:36:03.115Z,9.60
2017-12-20T13:38:31.334Z,9.60
2017-12-20T13:40:58.813Z,9.60
2017-12-20T13:43:26.275Z,9.70
2017-12-20T13:45:53.732Z,9.60
2017-12-20T13:48:21.198Z,9.60
2017-12-20T13:50:48.658Z,9.60
2017-12-20T13:53:16.123Z,9.60
2017-12-20T13:55:43.586Z,9.60
2017-12-20T13:58:11.802Z,9.60
2017-12-20T14:00:39.274Z,9.60
2017-12-20T14:03:06.722Z,9.60
2017-12-20T14:05:34.184Z,9.60
2017-12-20T14:08:01.651Z,9.60
2017-12-20T14:10:29.107Z,9.50
2017-12-20T14:12:56.568Z,9.60
2017-12-20T14:15:24.048Z,9.50
2017-12-20T14:17:51.498Z,9.50
2017-12-20T14:20:18.970Z,9.40
2017-12-20T14:22:46.431Z,9.40
2017-12-20T14:25:14.663Z,9.40
2017-12-20T14:27:42.127Z,9.40
2017-12-20T14:30:09.598Z,9.40
2017-12-20T14:32:37.066Z,9.40
2017-12-20T14:35:04.535Z,9.40
2017-12-20T14:37:32.746Z,9.40
2017-12-20T14:40:00.215Z,9.30
2017-12-20T14:42:27.678Z,9.30
2017-12-20T14:44:55.140Z,9.40
2017-12-20T14:47:22.600Z,9.40
2017-12-20T14:49:50.055Z,9.40
2017-12-20T14:52:17.529Z,9.40
2017-12-20T14:54:46.610Z,9.40
2017-12-20T14:57:14.059Z,9.40
2017-12-20T14:59:41.556Z,9.40
2017-12-20T15:02:08.999Z,9.40
2017-12-20T15:04:36.456Z,9.40
2017-12-20T15:07:03.936Z,9.40
2017-12-20T15:09:32.171Z,9.30
2017-12-20T15:11:59.644Z,9.30
2017-12-20T15:14:27.116Z,9.30
2017-12-20T15:16:55.339Z,9.30
2017-12-20T15:19:22.809Z,9.30
2017-12-20T15:21:50.263Z,9.30
2017-12-20T15:24:17.722Z,9.30
2017-12-20T15:26:45.211Z,9.30
2017-12-20T15:29:12.663Z,9.30
2017-12-20T15:31:40.136Z,9.30
2017-12-20T15:34:08.354Z,9.20
2017-12-20T15:36:35.815Z,9.20
2017-12-20T15:39:03.283Z,9.20
2017-12-20T15:41:30.739Z,9.30
2017-12-20T15:43:58.196Z,9.30
2017-12-20T15:46:25.668Z,9.20
2017-12-20T15:48:53.142Z,9.20
2017-12-20T15:51:20.604Z,9.20
2017-12-20T15:53:48.827Z,9.20
2017-12-20T15:56:16.291Z,9.10
2017-12-20T15:58:43.764Z,9.20
2017-12-20T16:01:11.214Z,9.20
2017-12-20T16:03:38.688Z,9.20
2017-12-20T16:06:06.195Z,9.20
2017-12-20T16:08:33.647Z,9.10
2017-12-20T16:11:01.210Z,9.10
2017-12-20T16:13:28.665Z,9.10
2017-12-20T16:15:56.128Z,9.10
2017-12-20T16:18:23.599Z,9.10
2017-12-20T16:20:51.063Z,9.10
2017-12-20T16:23:18.518Z,9.10
2017-12-20T16:25:45.994Z,9.10
2017-12-20T16:28:13.469Z,9.10
2017-12-20T16:30:41.690Z,9.10
2017-12-20T16:33:09.159Z,9.10
2017-12-20T16:35:36.620Z,9.10
2017-12-20T16:38:04.840Z,9.10
2017-12-20T16:40:33.071Z,9.10
2017-12-20T16:43:00.550Z,9.10
2017-12-20T16:45:28.010Z,9.10
2017-12-20T16:47:55.498Z,9.10
2017-12-20T16:50:23.714Z,9.10
2017-12-20T16:52:51.174Z,9.00
2017-12-20T16:55:18.631Z,9.00
2017-12-20T16:57:46.088Z,9.00
2017-12-20T17:00:13.559Z,9.10
2017-12-20T17:02:41.036Z,9.10
2017-12-20T17:05:09.255Z,9.10
2017-12-20T17:07:36.707Z,9.00
2017-12-20T17:10:04.179Z,9.10
2017-12-20T17:12:32.421Z,9.10
2017-12-20T17:14:59.874Z,9.00
2017-12-20T17:17:27.351Z,9.00
2017-12-20T17:19:54.810Z,9.00
2017-12-20T17:22:22.275Z,9.00
2017-12-20T17:24:49.731Z,9.00
2017-12-20T17:27:17.204Z,9.00
2017-12-20T17:29:44.655Z,9.00
2017-12-20T17:32:12.106Z,9.00
2017-12-20T17:34:39.571Z,9.00
2017-12-20T17:37:07.048Z,9.00
2017-12-20T17:39:34.503Z,9.00
2017-12-20T17:42:01.964Z,9.00
2017-12-20T17:44:29.423Z,9.00
2017-12-20T17:46:56.883Z,9.00
2017-12-20T17:49:24.343Z,9.00
2017-12-20T17:51:51.807Z,9.00
2017-12-20T17:54:20.042Z,9.10
2017-12-20T17:56:47.514Z,9.10
2017-12-20T17:59:14.986Z,9.00
2017-12-20T18:01:42.786Z,9.00
2017-12-20T18:04:10.255Z,9.00
2017-12-20T18:06:37.715Z,9.00
2017-12-20T18:09:05.171Z,9.00
2017-12-20T18:11:32.639Z,9.00
2017-12-20T18:14:00.090Z,9.00
2017-12-20T18:16:27.562Z,8.90
2017-12-20T18:18:55.036Z,8.90
2017-12-20T18:21:22.479Z,8.90
2017-12-20T18:23:49.961Z,8.90
2017-12-20T18:26:17.417Z,8.90
2017-12-20T18:28:44.876Z,8.90
2017-12-20T18:31:12.342Z,8.80
2017-12-20T18:33:40.572Z,8.80
2017-12-20T18:36:08.035Z,8.80
2017-12-20T18:38:35.497Z,8.80
2017-12-20T18:41:02.966Z,8.80
2017-12-20T18:43:30.438Z,8.80
2017-12-20T18:45:57.891Z,8.70
2017-12-20T18:48:25.371Z,8.80
2017-12-20T18:50:52.827Z,8.70
2017-12-20T18:53:20.282Z,8.70
2017-12-20T18:55:47.757Z,8.70
2017-12-20T18:58:15.219Z,8.70
2017-12-20T19:00:42.680Z,8.70
2017-12-20T19:03:10.158Z,8.70
2017-12-20T19:05:37.616Z,8.70
2017-12-20T19:08:05.070Z,8.70
2017-12-20T19:10:32.551Z,8.70
2017-12-20T19:13:00.018Z,8.60
2017-12-20T19:15:27.510Z,8.70
2017-12-20T19:17:54.984Z,8.60
2017-12-20T19:20:22.439Z,8.60
2017-12-20T19:22:49.895Z,8.60
2017-12-20T19:25:17.364Z,8.60
2017-12-20T19:27:44.820Z,8.60
2017-12-20T19:30:12.286Z,8.60
2017-12-20T19:32:39.738Z,8.60
2017-12-20T19:35:07.190Z,8.60
2017-12-20T19:37:34.655Z,8.50
2017-12-20T19:40:02.174Z,8.50
2017-12-20T19:42:29.618Z,8.60
2017-12-20T19:44:57.078Z,8.60
2017-12-20T19:47:24.531Z,8.60
2017-12-20T19:49:52.004Z,8.60
2017-12-20T19:52:19.454Z,8.50
2017-12-20T19:54:46.930Z,8.50
2017-12-20T19:57:14.389Z,8.50
2017-12-20T19:59:41.847Z,8.50
2017-12-20T20:02:09.310Z,8.50
2017-12-20T20:04:36.781Z,8.60
2017-12-20T20:07:04.231Z,8.60
2017-12-20T20:09:31.684Z,8.60
2017-12-20T20:11:59.910Z,8.60
2017-12-20T20:14:28.147Z,8.60
2017-12-20T20:16:55.603Z,8.60
2017-12-20T20:19:23.079Z,8.50
2017-12-20T20:21:50.582Z,8.50
2017-12-20T20:24:18.044Z,8.60
2017-12-20T20:26:45.511Z,8.60
2017-12-20T20:29:12.968Z,8.60
2017-12-20T20:31:40.439Z,8.60
2017-12-20T20:34:07.896Z,8.60
2017-12-20T20:36:35.356Z,8.60
2017-12-20T20:39:02.822Z,8.60
2017-12-20T20:41:30.278Z,8.60
2017-12-20T20:43:57.795Z,8.60
2017-12-20T20:46:25.260Z,8.50
2017-12-20T20:48:52.712Z,8.60
2017-12-20T20:51:20.166Z,8.60
2017-12-20T20:53:47.643Z,8.60
2017-12-20T20:56:15.103Z,8.60
2017-12-20T20:58:42.582Z,8.60
2017-12-20T21:01:10.049Z,8.60
2017-12-20T21:03:37.512Z,8.60
2017-12-20T21:06:05.760Z,8.60
2017-12-20T21:08:33.217Z,8.60
2017-12-20T21:11:00.666Z,8.60
2017-12-20T21:13:28.140Z,8.60
2017-12-20T21:15:55.598Z,8.60
2017-12-20T21:18:23.048Z,8.60
2017-12-20T21:20:50.515Z,8.60
2017-12-20T21:23:17.974Z,8.60
2017-12-20T21:25:45.422Z,8.60
2017-12-20T21:28:12.889Z,8.60
2017-12-20T21:30:40.342Z,8.60
2017-12-20T21:33:07.802Z,8.60
2017-12-20T21:35:36.042Z,8.60
2017-12-20T21:38:03.497Z,8.60
2017-12-20T21:40:30.964Z,8.60
2017-12-20T21:42:58.419Z,8.60
2017-12-20T21:45:25.884Z,8.60
2017-12-20T21:47:53.397Z,8.60
2017-12-20T21:50:20.852Z,8.60
2017-12-20T21:52:48.307Z,8.50
2017-12-20T21:55:15.803Z,8.60
2017-12-20T21:57:43.273Z,8.60
2017-12-20T22:00:11.526Z,8.60
2017-12-20T22:02:38.992Z,8.60
2017-12-20T22:05:06.451Z,8.60
2017-12-20T22:07:33.961Z,8.60
2017-12-20T22:10:01.412Z,8.60
2017-12-20T22:12:29.646Z,8.60
2017-12-20T22:14:57.098Z,8.50
2017-12-20T22:17:24.560Z,8.50
2017-12-20T22:19:52.036Z,8.60
2017-12-20T22:22:19.490Z,8.50
2017-12-20T22:24:46.948Z,8.50
2017-12-20T22:27:14.415Z,8.50
2017-12-20T22:29:42.672Z,8.50
2017-12-20T22:32:10.100Z,8.50
2017-12-20T22:34:37.554Z,8.50
2017-12-20T22:37:05.020Z,8.50
2017-12-20T22:39:32.483Z,8.50
2017-12-20T22:41:59.947Z,8.50
2017-12-20T22:44:27.424Z,8.50
2017-12-20T22:46:55.656Z,8.50
2017-12-20T22:49:23.201Z,8.50
2017-12-20T22:51:50.657Z,8.50
2017-12-20T22:54:18.126Z,8.50
2017-12-20T22:56:45.590Z,8.50
2017-12-20T22:59:13.057Z,8.50
2017-12-20T23:01:40.524Z,8.50
2017-12-20T23:04:07.994Z,8.50
2017-12-20T23:06:35.452Z,8.50
2017-12-20T23:09:02.927Z,8.50
2017-12-20T23:11:31.150Z,8.50
2017-12-20T23:13:58.615Z,8.50
2017-12-20T23:16:26.078Z,8.50
2017-12-20T23:18:53.575Z,8.40
2017-12-20T23:21:21.039Z,8.50
2017-12-20T23:23:48.514Z,8.50
2017-12-20T23:26:15.979Z,8.50
2017-12-20T23:28:43.434Z,8.50
2017-12-20T23:31:10.906Z,8.50
2017-12-20T23:33:38.438Z,8.40
2017-12-20T23:36:05.900Z,8.40
2017-12-20T23:38:33.360Z,8.40
2017-12-20T23:41:00.815Z,8.50
2017-12-20T23:43:28.284Z,8.40
2017-12-20T23:45:55.761Z,8.40
2017-12-20T23:48:23.223Z,8.50
2017-12-20T23:50:50.699Z,8.40
2017-12-20T23:53:18.918Z,8.40
2017-12-20T23:55:46.370Z,8.40
2017-12-20T23:58:13.848Z,8.40
